sensor_id;sensor_type;location;lat;lon;timestamp;P1;durP1;ratioP1;P2;durP2;ratioP2
7213;SDS011;3648;50.614;13.830;2023-03-14T00:01:18;13.47;;;8.87;;
7213;SDS011;3648;50.614;13.830;2023-03-14T00:03:47;11.63;;;6.83;;
7213;SDS011;3648;50.614;13.830;2023-03-14T00:06:15;8.03;;;6.63;;
7213;SDS011;3648;50.614;13.830;2023-03-14T00:08:43;7.70;;;5.67;;
7213;SDS011;3648;50.614;13.830;2023-03-14T00:11:11;8.20;;;4.83;;
7213;SDS011;3648;50.614;13.830;2023-03-14T00:13:39;6.47;;;5.43;;
7213;SDS011;3648;50.614;13.830;2023-03-14T00:16:07;8.27;;;5.33;;
7213;SDS011;3648;50.614;13.830;2023-03-14T00:18:35;7.17;;;5.57;;
7213;SDS011;3648;50.614;13.830;2023-03-14T00:21:05;7.37;;;5.47;;
7213;SDS011;3648;50.614;13.830;2023-03-14T00:23:34;8.40;;;4.93;;
7213;SDS011;3648;50.614;13.830;2023-03-14T00:26:03;6.77;;;5.23;;
7213;SDS011;3648;50.614;13.830;2023-03-14T00:28:34;8.27;;;7.40;;
7213;SDS011;3648;50.614;13.830;2023-03-14T00:31:02;10.73;;;7.67;;
7213;SDS011;3648;50.614;13.830;2023-03-14T00:33:29;14.67;;;10.00;;
7213;SDS011;3648;50.614;13.830;2023-03-14T00:35:57;13.83;;;9.43;;
7213;SDS011;3648;50.614;13.830;2023-03-14T00:38:27;18.67;;;12.10;;
7213;SDS011;3648;50.614;13.830;2023-03-14T00:40:54;19.83;;;10.83;;
7213;SDS011;3648;50.614;13.830;2023-03-14T00:43:21;15.30;;;9.70;;
7213;SDS011;3648;50.614;13.830;2023-03-14T00:45:48;10.83;;;7.70;;
7213;SDS011;3648;50.614;13.830;2023-03-14T00:48:15;9.73;;;6.60;;
7213;SDS011;3648;50.614;13.830;2023-03-14T00:50:43;5.93;;;5.23;;
7213;SDS011;3648;50.614;13.830;2023-03-14T00:53:10;9.27;;;5.97;;
7213;SDS011;3648;50.614;13.830;2023-03-14T00:55:39;8.43;;;4.93;;
7213;SDS011;3648;50.614;13.830;2023-03-14T00:58:07;6.87;;;5.83;;
7213;SDS011;3648;50.614;13.830;2023-03-14T01:00:35;8.87;;;6.60;;
7213;SDS011;3648;50.614;13.830;2023-03-14T01:03:02;8.07;;;6.43;;
7213;SDS011;3648;50.614;13.830;2023-03-14T01:05:29;5.17;;;4.63;;
7213;SDS011;3648;50.614;13.830;2023-03-14T01:07:57;6.50;;;5.00;;
7213;SDS011;3648;50.614;13.830;2023-03-14T01:10:24;6.43;;;4.90;;
7213;SDS011;3648;50.614;13.830;2023-03-14T01:12:52;7.30;;;5.13;;
7213;SDS011;3648;50.614;13.830;2023-03-14T01:15:19;10.17;;;5.70;;
7213;SDS011;3648;50.614;13.830;2023-03-14T01:17:47;7.73;;;5.47;;
7213;SDS011;3648;50.614;13.830;2023-03-14T01:20:14;10.73;;;5.50;;
7213;SDS011;3648;50.614;13.830;2023-03-14T01:22:42;8.93;;;6.10;;
7213;SDS011;3648;50.614;13.830;2023-03-14T01:25:10;9.40;;;5.80;;
7213;SDS011;3648;50.614;13.830;2023-03-14T01:27:39;12.20;;;7.93;;
7213;SDS011;3648;50.614;13.830;2023-03-14T01:30:08;8.40;;;6.33;;
7213;SDS011;3648;50.614;13.830;2023-03-14T01:32:37;6.83;;;5.60;;
7213;SDS011;3648;50.614;13.830;2023-03-14T01:35:04;8.43;;;6.47;;
7213;SDS011;3648;50.614;13.830;2023-03-14T01:37:31;8.77;;;7.87;;
7213;SDS011;3648;50.614;13.830;2023-03-14T01:39:58;10.07;;;6.77;;
7213;SDS011;3648;50.614;13.830;2023-03-14T01:42:25;8.43;;;7.20;;
7213;SDS011;3648;50.614;13.830;2023-03-14T01:44:53;9.07;;;7.03;;
7213;SDS011;3648;50.614;13.830;2023-03-14T01:47:22;7.87;;;6.50;;
7213;SDS011;3648;50.614;13.830;2023-03-14T01:49:50;7.70;;;6.53;;
7213;SDS011;3648;50.614;13.830;2023-03-14T01:52:20;10.50;;;7.47;;
7213;SDS011;3648;50.614;13.830;2023-03-14T01:54:51;9.17;;;7.43;;
7213;SDS011;3648;50.614;13.830;2023-03-14T01:57:22;10.67;;;8.47;;
7213;SDS011;3648;50.614;13.830;2023-03-14T01:59:54;10.30;;;8.23;;
7213;SDS011;3648;50.614;13.830;2023-03-14T02:02:28;9.53;;;8.53;;
7213;SDS011;3648;50.614;13.830;2023-03-14T02:04:55;12.10;;;8.90;;
7213;SDS011;3648;50.614;13.830;2023-03-14T02:07:24;10.17;;;7.87;;
7213;SDS011;3648;50.614;13.830;2023-03-14T02:09:56;9.27;;;8.30;;
7213;SDS011;3648;50.614;13.830;2023-03-14T02:12:25;9.70;;;7.70;;
7213;SDS011;3648;50.614;13.830;2023-03-14T02:14:52;8.03;;;7.23;;
7213;SDS011;3648;50.614;13.830;2023-03-14T02:17:19;11.20;;;8.80;;
7213;SDS011;3648;50.614;13.830;2023-03-14T02:22:45;9.13;;;7.63;;
7213;SDS011;3648;50.614;13.830;2023-03-14T02:25:14;8.03;;;7.20;;
7213;SDS011;3648;50.614;13.830;2023-03-14T02:27:48;7.03;;;6.33;;
7213;SDS011;3648;50.614;13.830;2023-03-14T02:30:17;10.67;;;7.97;;
7213;SDS011;3648;50.614;13.830;2023-03-14T02:32:46;12.93;;;9.60;;
7213;SDS011;3648;50.614;13.830;2023-03-14T02:35:19;12.97;;;10.17;;
7213;SDS011;3648;50.614;13.830;2023-03-14T02:37:51;21.13;;;10.30;;
7213;SDS011;3648;50.614;13.830;2023-03-14T02:40:21;12.40;;;9.27;;
7213;SDS011;3648;50.614;13.830;2023-03-14T02:42:50;13.77;;;9.73;;
7213;SDS011;3648;50.614;13.830;2023-03-14T02:45:31;9.43;;;8.37;;
7213;SDS011;3648;50.614;13.830;2023-03-14T02:48:07;13.97;;;8.73;;
7213;SDS011;3648;50.614;13.830;2023-03-14T02:50:37;13.50;;;10.07;;
7213;SDS011;3648;50.614;13.830;2023-03-14T02:53:05;15.63;;;10.50;;
7213;SDS011;3648;50.614;13.830;2023-03-14T02:55:32;18.57;;;10.83;;
7213;SDS011;3648;50.614;13.830;2023-03-14T02:58:00;24.63;;;14.10;;
7213;SDS011;3648;50.614;13.830;2023-03-14T03:00:27;20.90;;;12.90;;
7213;SDS011;3648;50.614;13.830;2023-03-14T03:02:55;11.30;;;7.87;;
7213;SDS011;3648;50.614;13.830;2023-03-14T03:05:22;10.33;;;7.00;;
7213;SDS011;3648;50.614;13.830;2023-03-14T03:07:49;10.03;;;5.87;;
7213;SDS011;3648;50.614;13.830;2023-03-14T03:10:16;8.07;;;5.97;;
7213;SDS011;3648;50.614;13.830;2023-03-14T03:12:43;8.30;;;5.70;;
7213;SDS011;3648;50.614;13.830;2023-03-14T03:15:12;7.20;;;5.73;;
7213;SDS011;3648;50.614;13.830;2023-03-14T03:17:39;8.03;;;6.20;;
7213;SDS011;3648;50.614;13.830;2023-03-14T03:20:06;8.73;;;6.23;;
7213;SDS011;3648;50.614;13.830;2023-03-14T03:22:34;12.27;;;6.90;;
7213;SDS011;3648;50.614;13.830;2023-03-14T03:25:01;7.70;;;5.50;;
7213;SDS011;3648;50.614;13.830;2023-03-14T03:27:29;12.20;;;8.07;;
7213;SDS011;3648;50.614;13.830;2023-03-14T03:29:56;13.17;;;8.73;;
7213;SDS011;3648;50.614;13.830;2023-03-14T03:32:25;11.90;;;6.97;;
7213;SDS011;3648;50.614;13.830;2023-03-14T03:34:52;10.50;;;7.00;;
7213;SDS011;3648;50.614;13.830;2023-03-14T03:37:19;10.20;;;6.90;;
7213;SDS011;3648;50.614;13.830;2023-03-14T03:39:46;8.40;;;5.30;;
7213;SDS011;3648;50.614;13.830;2023-03-14T03:42:13;10.67;;;6.10;;
7213;SDS011;3648;50.614;13.830;2023-03-14T03:44:40;6.00;;;3.30;;
7213;SDS011;3648;50.614;13.830;2023-03-14T03:47:07;3.17;;;2.40;;
7213;SDS011;3648;50.614;13.830;2023-03-14T03:49:35;2.93;;;2.27;;
7213;SDS011;3648;50.614;13.830;2023-03-14T03:52:02;4.60;;;2.00;;
7213;SDS011;3648;50.614;13.830;2023-03-14T03:54:29;3.67;;;1.90;;
7213;SDS011;3648;50.614;13.830;2023-03-14T03:56:56;4.00;;;1.60;;
7213;SDS011;3648;50.614;13.830;2023-03-14T03:59:23;1.43;;;1.33;;
7213;SDS011;3648;50.614;13.830;2023-03-14T04:01:50;4.23;;;1.80;;
7213;SDS011;3648;50.614;13.830;2023-03-14T04:04:17;3.17;;;1.30;;
7213;SDS011;3648;50.614;13.830;2023-03-14T04:06:45;1.97;;;1.40;;
7213;SDS011;3648;50.614;13.830;2023-03-14T04:09:12;2.63;;;1.67;;
7213;SDS011;3648;50.614;13.830;2023-03-14T04:11:40;1.70;;;1.43;;
7213;SDS011;3648;50.614;13.830;2023-03-14T04:14:07;2.33;;;1.33;;
7213;SDS011;3648;50.614;13.830;2023-03-14T04:16:34;5.23;;;1.50;;
7213;SDS011;3648;50.614;13.830;2023-03-14T04:19:02;1.93;;;1.43;;
7213;SDS011;3648;50.614;13.830;2023-03-14T04:21:29;3.03;;;1.17;;
7213;SDS011;3648;50.614;13.830;2023-03-14T04:23:57;1.63;;;1.20;;
7213;SDS011;3648;50.614;13.830;2023-03-14T04:26:24;2.83;;;2.30;;
7213;SDS011;3648;50.614;13.830;2023-03-14T04:28:51;2.83;;;2.30;;
7213;SDS011;3648;50.614;13.830;2023-03-14T04:31:18;3.97;;;3.57;;
7213;SDS011;3648;50.614;13.830;2023-03-14T04:33:47;6.03;;;4.43;;
7213;SDS011;3648;50.614;13.830;2023-03-14T04:36:14;3.67;;;2.53;;
7213;SDS011;3648;50.614;13.830;2023-03-14T04:38:41;5.00;;;3.67;;
7213;SDS011;3648;50.614;13.830;2023-03-14T04:41:09;2.03;;;1.57;;
7213;SDS011;3648;50.614;13.830;2023-03-14T04:43:36;1.53;;;1.20;;
7213;SDS011;3648;50.614;13.830;2023-03-14T04:46:03;1.93;;;1.20;;
7213;SDS011;3648;50.614;13.830;2023-03-14T04:48:30;2.50;;;1.27;;
7213;SDS011;3648;50.614;13.830;2023-03-14T04:50:57;1.97;;;1.20;;
7213;SDS011;3648;50.614;13.830;2023-03-14T04:53:24;2.00;;;1.20;;
7213;SDS011;3648;50.614;13.830;2023-03-14T04:55:52;2.23;;;1.33;;
7213;SDS011;3648;50.614;13.830;2023-03-14T04:58:22;1.80;;;1.27;;
7213;SDS011;3648;50.614;13.830;2023-03-14T05:00:50;1.60;;;1.00;;
7213;SDS011;3648;50.614;13.830;2023-03-14T05:03:17;1.63;;;1.17;;
7213;SDS011;3648;50.614;13.830;2023-03-14T05:05:44;3.50;;;1.07;;
7213;SDS011;3648;50.614;13.830;2023-03-14T05:08:12;1.90;;;1.00;;
7213;SDS011;3648;50.614;13.830;2023-03-14T05:10:39;2.03;;;1.07;;
7213;SDS011;3648;50.614;13.830;2023-03-14T05:13:06;1.67;;;0.90;;
7213;SDS011;3648;50.614;13.830;2023-03-14T05:15:34;1.87;;;1.10;;
7213;SDS011;3648;50.614;13.830;2023-03-14T05:18:01;3.47;;;2.03;;
7213;SDS011;3648;50.614;13.830;2023-03-14T05:20:28;2.17;;;1.50;;
7213;SDS011;3648;50.614;13.830;2023-03-14T05:22:57;3.47;;;1.53;;
7213;SDS011;3648;50.614;13.830;2023-03-14T05:25:24;2.90;;;2.03;;
7213;SDS011;3648;50.614;13.830;2023-03-14T05:27:53;4.03;;;1.50;;
7213;SDS011;3648;50.614;13.830;2023-03-14T05:30:20;4.27;;;3.20;;
7213;SDS011;3648;50.614;13.830;2023-03-14T05:32:49;3.27;;;2.37;;
7213;SDS011;3648;50.614;13.830;2023-03-14T05:35:16;4.63;;;2.23;;
7213;SDS011;3648;50.614;13.830;2023-03-14T05:37:43;2.90;;;1.53;;
7213;SDS011;3648;50.614;13.830;2023-03-14T05:40:11;3.33;;;2.00;;
7213;SDS011;3648;50.614;13.830;2023-03-14T05:42:38;3.57;;;2.53;;
7213;SDS011;3648;50.614;13.830;2023-03-14T05:45:05;4.13;;;2.30;;
7213;SDS011;3648;50.614;13.830;2023-03-14T05:47:33;2.60;;;1.97;;
7213;SDS011;3648;50.614;13.830;2023-03-14T05:50:02;6.17;;;3.17;;
7213;SDS011;3648;50.614;13.830;2023-03-14T05:52:29;4.97;;;3.00;;
7213;SDS011;3648;50.614;13.830;2023-03-14T05:54:57;3.93;;;2.43;;
7213;SDS011;3648;50.614;13.830;2023-03-14T05:57:24;4.23;;;3.00;;
7213;SDS011;3648;50.614;13.830;2023-03-14T05:59:51;11.17;;;5.37;;
7213;SDS011;3648;50.614;13.830;2023-03-14T06:02:18;7.40;;;3.43;;
7213;SDS011;3648;50.614;13.830;2023-03-14T06:04:45;4.87;;;3.07;;
7213;SDS011;3648;50.614;13.830;2023-03-14T06:07:14;6.97;;;4.87;;
7213;SDS011;3648;50.614;13.830;2023-03-14T06:09:41;8.57;;;5.00;;
7213;SDS011;3648;50.614;13.830;2023-03-14T06:12:08;8.77;;;4.50;;
7213;SDS011;3648;50.614;13.830;2023-03-14T06:14:35;11.90;;;7.00;;
7213;SDS011;3648;50.614;13.830;2023-03-14T06:17:02;7.73;;;4.77;;
7213;SDS011;3648;50.614;13.830;2023-03-14T06:19:29;7.03;;;3.03;;
7213;SDS011;3648;50.614;13.830;2023-03-14T06:21:56;4.50;;;2.13;;
7213;SDS011;3648;50.614;13.830;2023-03-14T06:24:24;4.30;;;2.07;;
7213;SDS011;3648;50.614;13.830;2023-03-14T06:26:51;1.83;;;1.67;;
7213;SDS011;3648;50.614;13.830;2023-03-14T06:29:18;5.23;;;2.33;;
7213;SDS011;3648;50.614;13.830;2023-03-14T06:31:45;6.47;;;4.00;;
7213;SDS011;3648;50.614;13.830;2023-03-14T06:34:12;5.77;;;3.97;;
7213;SDS011;3648;50.614;13.830;2023-03-14T06:36:39;5.87;;;4.47;;
7213;SDS011;3648;50.614;13.830;2023-03-14T06:39:06;11.53;;;6.27;;
7213;SDS011;3648;50.614;13.830;2023-03-14T06:41:34;6.37;;;5.23;;
7213;SDS011;3648;50.614;13.830;2023-03-14T06:44:01;8.83;;;5.43;;
7213;SDS011;3648;50.614;13.830;2023-03-14T06:46:28;7.00;;;4.03;;
7213;SDS011;3648;50.614;13.830;2023-03-14T06:48:55;8.83;;;4.83;;
7213;SDS011;3648;50.614;13.830;2023-03-14T06:51:22;11.00;;;5.87;;
7213;SDS011;3648;50.614;13.830;2023-03-14T06:53:49;10.93;;;8.90;;
7213;SDS011;3648;50.614;13.830;2023-03-14T06:56:16;14.03;;;9.80;;
7213;SDS011;3648;50.614;13.830;2023-03-14T06:58:44;7.07;;;5.30;;
7213;SDS011;3648;50.614;13.830;2023-03-14T07:01:17;24.27;;;18.37;;
7213;SDS011;3648;50.614;13.830;2023-03-14T07:03:48;8.23;;;5.57;;
7213;SDS011;3648;50.614;13.830;2023-03-14T07:06:15;10.83;;;6.97;;
7213;SDS011;3648;50.614;13.830;2023-03-14T07:08:42;7.20;;;4.17;;
7213;SDS011;3648;50.614;13.830;2023-03-14T07:11:09;5.30;;;3.13;;
7213;SDS011;3648;50.614;13.830;2023-03-14T07:13:37;5.70;;;2.87;;
7213;SDS011;3648;50.614;13.830;2023-03-14T07:16:06;3.73;;;2.50;;
7213;SDS011;3648;50.614;13.830;2023-03-14T07:18:34;7.00;;;3.70;;
7213;SDS011;3648;50.614;13.830;2023-03-14T07:21:02;6.57;;;3.57;;
7213;SDS011;3648;50.614;13.830;2023-03-14T07:23:29;10.07;;;6.57;;
7213;SDS011;3648;50.614;13.830;2023-03-14T07:25:56;8.37;;;5.40;;
7213;SDS011;3648;50.614;13.830;2023-03-14T07:28:23;7.70;;;4.60;;
7213;SDS011;3648;50.614;13.830;2023-03-14T07:30:52;12.23;;;7.57;;
7213;SDS011;3648;50.614;13.830;2023-03-14T07:33:21;10.13;;;5.57;;
7213;SDS011;3648;50.614;13.830;2023-03-14T07:35:48;8.13;;;5.07;;
7213;SDS011;3648;50.614;13.830;2023-03-14T07:38:16;8.93;;;4.53;;
7213;SDS011;3648;50.614;13.830;2023-03-14T07:40:43;13.83;;;8.87;;
7213;SDS011;3648;50.614;13.830;2023-03-14T07:43:10;21.97;;;10.90;;
7213;SDS011;3648;50.614;13.830;2023-03-14T07:45:37;16.93;;;9.10;;
7213;SDS011;3648;50.614;13.830;2023-03-14T07:48:04;9.27;;;4.83;;
7213;SDS011;3648;50.614;13.830;2023-03-14T07:50:32;12.47;;;7.53;;
7213;SDS011;3648;50.614;13.830;2023-03-14T07:52:59;8.50;;;4.87;;
7213;SDS011;3648;50.614;13.830;2023-03-14T07:55:26;8.93;;;5.50;;
7213;SDS011;3648;50.614;13.830;2023-03-14T07:57:53;5.50;;;3.00;;
7213;SDS011;3648;50.614;13.830;2023-03-14T08:00:20;3.60;;;1.87;;
7213;SDS011;3648;50.614;13.830;2023-03-14T08:02:47;3.10;;;2.20;;
7213;SDS011;3648;50.614;13.830;2023-03-14T08:05:14;4.10;;;2.50;;
7213;SDS011;3648;50.614;13.830;2023-03-14T08:07:43;4.90;;;2.13;;
7213;SDS011;3648;50.614;13.830;2023-03-14T08:10:10;6.37;;;3.90;;
7213;SDS011;3648;50.614;13.830;2023-03-14T08:12:42;10.83;;;7.63;;
7213;SDS011;3648;50.614;13.830;2023-03-14T08:15:09;8.90;;;4.67;;
7213;SDS011;3648;50.614;13.830;2023-03-14T08:17:37;6.00;;;4.40;;
7213;SDS011;3648;50.614;13.830;2023-03-14T08:20:04;4.80;;;3.67;;
7213;SDS011;3648;50.614;13.830;2023-03-14T08:22:33;4.43;;;3.57;;
7213;SDS011;3648;50.614;13.830;2023-03-14T08:25:02;9.00;;;6.73;;
7213;SDS011;3648;50.614;13.830;2023-03-14T08:27:29;6.50;;;4.07;;
7213;SDS011;3648;50.614;13.830;2023-03-14T08:29:56;5.17;;;3.13;;
7213;SDS011;3648;50.614;13.830;2023-03-14T08:32:23;5.77;;;4.03;;
7213;SDS011;3648;50.614;13.830;2023-03-14T08:34:50;3.80;;;2.80;;
7213;SDS011;3648;50.614;13.830;2023-03-14T08:37:17;6.13;;;2.60;;
7213;SDS011;3648;50.614;13.830;2023-03-14T08:39:44;9.03;;;5.67;;
7213;SDS011;3648;50.614;13.830;2023-03-14T08:42:13;4.10;;;2.43;;
7213;SDS011;3648;50.614;13.830;2023-03-14T08:44:40;3.57;;;2.40;;
7213;SDS011;3648;50.614;13.830;2023-03-14T08:47:07;3.03;;;1.60;;
7213;SDS011;3648;50.614;13.830;2023-03-14T08:49:34;2.47;;;1.57;;
7213;SDS011;3648;50.614;13.830;2023-03-14T08:52:01;4.97;;;3.37;;
7213;SDS011;3648;50.614;13.830;2023-03-14T08:54:28;5.13;;;3.60;;
7213;SDS011;3648;50.614;13.830;2023-03-14T08:56:55;3.80;;;2.80;;
7213;SDS011;3648;50.614;13.830;2023-03-14T08:59:24;4.17;;;2.43;;
7213;SDS011;3648;50.614;13.830;2023-03-14T09:01:51;4.37;;;3.33;;
7213;SDS011;3648;50.614;13.830;2023-03-14T09:04:19;2.60;;;1.77;;
7213;SDS011;3648;50.614;13.830;2023-03-14T09:06:46;10.90;;;6.20;;
7213;SDS011;3648;50.614;13.830;2023-03-14T09:09:13;3.77;;;2.70;;
7213;SDS011;3648;50.614;13.830;2023-03-14T09:11:40;5.90;;;4.03;;
7213;SDS011;3648;50.614;13.830;2023-03-14T09:14:07;5.83;;;3.33;;
7213;SDS011;3648;50.614;13.830;2023-03-14T09:16:35;13.17;;;6.67;;
7213;SDS011;3648;50.614;13.830;2023-03-14T09:19:02;7.23;;;5.00;;
7213;SDS011;3648;50.614;13.830;2023-03-14T09:21:30;6.53;;;4.57;;
7213;SDS011;3648;50.614;13.830;2023-03-14T09:23:57;6.07;;;3.33;;
7213;SDS011;3648;50.614;13.830;2023-03-14T09:26:24;4.30;;;2.40;;
7213;SDS011;3648;50.614;13.830;2023-03-14T09:28:51;4.57;;;2.37;;
7213;SDS011;3648;50.614;13.830;2023-03-14T09:31:18;3.73;;;2.17;;
7213;SDS011;3648;50.614;13.830;2023-03-14T09:33:46;2.63;;;1.63;;
7213;SDS011;3648;50.614;13.830;2023-03-14T09:36:13;5.40;;;2.77;;
7213;SDS011;3648;50.614;13.830;2023-03-14T09:38:40;4.57;;;2.80;;
7213;SDS011;3648;50.614;13.830;2023-03-14T09:41:14;3.83;;;2.70;;
7213;SDS011;3648;50.614;13.830;2023-03-14T09:43:47;3.47;;;2.07;;
7213;SDS011;3648;50.614;13.830;2023-03-14T09:46:16;5.47;;;3.33;;
7213;SDS011;3648;50.614;13.830;2023-03-14T09:48:43;4.80;;;2.30;;
7213;SDS011;3648;50.614;13.830;2023-03-14T09:51:14;3.97;;;2.83;;
7213;SDS011;3648;50.614;13.830;2023-03-14T09:53:43;6.20;;;3.20;;
7213;SDS011;3648;50.614;13.830;2023-03-14T09:56:12;3.80;;;2.73;;
7213;SDS011;3648;50.614;13.830;2023-03-14T09:58:44;7.20;;;3.70;;
7213;SDS011;3648;50.614;13.830;2023-03-14T10:01:16;9.37;;;4.90;;
7213;SDS011;3648;50.614;13.830;2023-03-14T10:03:48;11.27;;;6.30;;
7213;SDS011;3648;50.614;13.830;2023-03-14T10:06:18;7.33;;;4.93;;
7213;SDS011;3648;50.614;13.830;2023-03-14T10:08:46;6.07;;;3.80;;
7213;SDS011;3648;50.614;13.830;2023-03-14T10:11:14;4.03;;;2.53;;
7213;SDS011;3648;50.614;13.830;2023-03-14T10:13:49;3.37;;;2.10;;
7213;SDS011;3648;50.614;13.830;2023-03-14T10:16:29;3.40;;;1.30;;
7213;SDS011;3648;50.614;13.830;2023-03-14T10:19:01;3.67;;;2.70;;
7213;SDS011;3648;50.614;13.830;2023-03-14T10:21:35;7.17;;;3.77;;
7213;SDS011;3648;50.614;13.830;2023-03-14T10:24:08;4.27;;;3.10;;
7213;SDS011;3648;50.614;13.830;2023-03-14T10:26:42;7.77;;;4.70;;
7213;SDS011;3648;50.614;13.830;2023-03-14T10:29:10;5.67;;;4.00;;
7213;SDS011;3648;50.614;13.830;2023-03-14T10:31:46;5.40;;;4.03;;
7213;SDS011;3648;50.614;13.830;2023-03-14T10:34:16;8.03;;;5.83;;
7213;SDS011;3648;50.614;13.830;2023-03-14T10:36:48;4.30;;;3.60;;
7213;SDS011;3648;50.614;13.830;2023-03-14T10:42:12;2.90;;;2.03;;
7213;SDS011;3648;50.614;13.830;2023-03-14T10:44:44;3.23;;;1.87;;
7213;SDS011;3648;50.614;13.830;2023-03-14T10:47:15;3.67;;;2.33;;
7213;SDS011;3648;50.614;13.830;2023-03-14T10:49:44;3.00;;;1.70;;
7213;SDS011;3648;50.614;13.830;2023-03-14T10:52:18;2.60;;;1.80;;
7213;SDS011;3648;50.614;13.830;2023-03-14T10:54:48;3.07;;;1.20;;
7213;SDS011;3648;50.614;13.830;2023-03-14T10:57:20;3.23;;;1.87;;
7213;SDS011;3648;50.614;13.830;2023-03-14T10:59:47;2.50;;;1.60;;
7213;SDS011;3648;50.614;13.830;2023-03-14T11:02:19;2.50;;;1.63;;
7213;SDS011;3648;50.614;13.830;2023-03-14T11:05:15;2.90;;;1.80;;
7213;SDS011;3648;50.614;13.830;2023-03-14T11:07:51;2.43;;;1.87;;
7213;SDS011;3648;50.614;13.830;2023-03-14T11:10:24;2.07;;;1.60;;
7213;SDS011;3648;50.614;13.830;2023-03-14T11:13:00;5.23;;;2.73;;
7213;SDS011;3648;50.614;13.830;2023-03-14T11:15:38;5.57;;;2.43;;
7213;SDS011;3648;50.614;13.830;2023-03-14T11:21:01;2.60;;;1.20;;
7213;SDS011;3648;50.614;13.830;2023-03-14T11:23:37;2.53;;;1.27;;
7213;SDS011;3648;50.614;13.830;2023-03-14T11:26:12;2.20;;;1.97;;
7213;SDS011;3648;50.614;13.830;2023-03-14T11:28:50;2.90;;;1.30;;
7213;SDS011;3648;50.614;13.830;2023-03-14T11:31:24;1.80;;;1.40;;
7213;SDS011;3648;50.614;13.830;2023-03-14T11:33:55;3.10;;;2.00;;
7213;SDS011;3648;50.614;13.830;2023-03-14T11:36:27;4.40;;;1.83;;
7213;SDS011;3648;50.614;13.830;2023-03-14T11:38:59;1.70;;;1.40;;
7213;SDS011;3648;50.614;13.830;2023-03-14T11:41:27;3.30;;;2.87;;
7213;SDS011;3648;50.614;13.830;2023-03-14T11:43:59;2.57;;;2.37;;
7213;SDS011;3648;50.614;13.830;2023-03-14T11:46:31;3.63;;;2.27;;
7213;SDS011;3648;50.614;13.830;2023-03-14T11:49:03;3.80;;;3.43;;
7213;SDS011;3648;50.614;13.830;2023-03-14T11:51:38;3.23;;;2.13;;
7213;SDS011;3648;50.614;13.830;2023-03-14T11:54:11;4.80;;;3.83;;
7213;SDS011;3648;50.614;13.830;2023-03-14T11:56:44;5.00;;;3.53;;
7213;SDS011;3648;50.614;13.830;2023-03-14T11:59:17;2.93;;;2.70;;
7213;SDS011;3648;50.614;13.830;2023-03-14T12:01:51;3.47;;;2.60;;
7213;SDS011;3648;50.614;13.830;2023-03-14T12:04:22;4.70;;;2.13;;
7213;SDS011;3648;50.614;13.830;2023-03-14T12:07:01;11.00;;;7.33;;
7213;SDS011;3648;50.614;13.830;2023-03-14T12:09:33;7.73;;;5.20;;
7213;SDS011;3648;50.614;13.830;2023-03-14T12:12:02;16.07;;;11.53;;
7213;SDS011;3648;50.614;13.830;2023-03-14T12:14:32;9.90;;;5.93;;
7213;SDS011;3648;50.614;13.830;2023-03-14T12:17:04;4.70;;;3.50;;
7213;SDS011;3648;50.614;13.830;2023-03-14T12:19:36;5.70;;;2.97;;
7213;SDS011;3648;50.614;13.830;2023-03-14T12:22:13;3.20;;;2.37;;
7213;SDS011;3648;50.614;13.830;2023-03-14T12:24:51;2.70;;;2.00;;
7213;SDS011;3648;50.614;13.830;2023-03-14T12:27:45;2.97;;;2.00;;
7213;SDS011;3648;50.614;13.830;2023-03-14T12:30:30;2.40;;;1.50;;
7213;SDS011;3648;50.614;13.830;2023-03-14T12:33:19;2.53;;;1.83;;
7213;SDS011;3648;50.614;13.830;2023-03-14T12:35:52;4.30;;;2.07;;
7213;SDS011;3648;50.614;13.830;2023-03-14T12:38:27;4.13;;;2.90;;
7213;SDS011;3648;50.614;13.830;2023-03-14T12:41:06;4.57;;;2.40;;
7213;SDS011;3648;50.614;13.830;2023-03-14T12:43:41;5.50;;;3.77;;
7213;SDS011;3648;50.614;13.830;2023-03-14T12:46:14;3.70;;;2.10;;
7213;SDS011;3648;50.614;13.830;2023-03-14T12:48:47;9.40;;;5.87;;
7213;SDS011;3648;50.614;13.830;2023-03-14T12:51:16;5.90;;;4.13;;
7213;SDS011;3648;50.614;13.830;2023-03-14T12:53:56;3.90;;;2.73;;
7213;SDS011;3648;50.614;13.830;2023-03-14T12:56:48;2.73;;;1.87;;
7213;SDS011;3648;50.614;13.830;2023-03-14T12:59:29;2.47;;;1.73;;
7213;SDS011;3648;50.614;13.830;2023-03-14T13:01:59;3.93;;;2.80;;
7213;SDS011;3648;50.614;13.830;2023-03-14T13:04:29;3.70;;;2.47;;
7213;SDS011;3648;50.614;13.830;2023-03-14T13:07:00;6.17;;;4.27;;
7213;SDS011;3648;50.614;13.830;2023-03-14T13:09:35;6.47;;;2.60;;
7213;SDS011;3648;50.614;13.830;2023-03-14T13:12:16;6.57;;;4.53;;
7213;SDS011;3648;50.614;13.830;2023-03-14T13:14:45;6.23;;;4.73;;
7213;SDS011;3648;50.614;13.830;2023-03-14T13:17:15;7.00;;;4.70;;
7213;SDS011;3648;50.614;13.830;2023-03-14T13:19:50;6.90;;;4.77;;
7213;SDS011;3648;50.614;13.830;2023-03-14T13:22:20;5.20;;;2.70;;
7213;SDS011;3648;50.614;13.830;2023-03-14T13:24:50;2.50;;;2.30;;
7213;SDS011;3648;50.614;13.830;2023-03-14T13:27:19;3.43;;;2.53;;
7213;SDS011;3648;50.614;13.830;2023-03-14T13:29:49;4.43;;;2.90;;
7213;SDS011;3648;50.614;13.830;2023-03-14T13:32:17;8.47;;;5.47;;
7213;SDS011;3648;50.614;13.830;2023-03-14T13:34:47;8.37;;;5.10;;
7213;SDS011;3648;50.614;13.830;2023-03-14T13:37:15;7.67;;;5.47;;
7213;SDS011;3648;50.614;13.830;2023-03-14T13:39:43;4.73;;;3.47;;
7213;SDS011;3648;50.614;13.830;2023-03-14T13:42:17;2.53;;;2.20;;
7213;SDS011;3648;50.614;13.830;2023-03-14T13:44:45;2.47;;;1.00;;
7213;SDS011;3648;50.614;13.830;2023-03-14T13:47:13;1.77;;;1.20;;
7213;SDS011;3648;50.614;13.830;2023-03-14T13:49:42;1.60;;;1.03;;
7213;SDS011;3648;50.614;13.830;2023-03-14T13:52:23;1.57;;;1.20;;
7213;SDS011;3648;50.614;13.830;2023-03-14T13:54:55;2.60;;;2.03;;
7213;SDS011;3648;50.614;13.830;2023-03-14T13:57:24;2.70;;;2.13;;
7213;SDS011;3648;50.614;13.830;2023-03-14T13:59:59;2.87;;;2.37;;
7213;SDS011;3648;50.614;13.830;2023-03-14T14:02:31;5.90;;;4.10;;
7213;SDS011;3648;50.614;13.830;2023-03-14T14:04:59;11.10;;;7.53;;
7213;SDS011;3648;50.614;13.830;2023-03-14T14:07:27;11.20;;;7.10;;
7213;SDS011;3648;50.614;13.830;2023-03-14T14:09:54;12.63;;;9.47;;
7213;SDS011;3648;50.614;13.830;2023-03-14T14:12:22;11.13;;;7.13;;
7213;SDS011;3648;50.614;13.830;2023-03-14T14:14:55;10.80;;;7.03;;
7213;SDS011;3648;50.614;13.830;2023-03-14T14:17:25;12.20;;;8.10;;
7213;SDS011;3648;50.614;13.830;2023-03-14T14:19:56;9.20;;;5.33;;
7213;SDS011;3648;50.614;13.830;2023-03-14T14:22:25;6.20;;;3.70;;
7213;SDS011;3648;50.614;13.830;2023-03-14T14:24:52;5.40;;;3.30;;
7213;SDS011;3648;50.614;13.830;2023-03-14T14:27:23;3.13;;;1.90;;
7213;SDS011;3648;50.614;13.830;2023-03-14T14:29:56;2.57;;;1.73;;
7213;SDS011;3648;50.614;13.830;2023-03-14T14:32:26;4.20;;;1.70;;
7213;SDS011;3648;50.614;13.830;2023-03-14T14:35:00;5.03;;;2.83;;
7213;SDS011;3648;50.614;13.830;2023-03-14T14:37:29;8.20;;;6.00;;
7213;SDS011;3648;50.614;13.830;2023-03-14T14:39:58;8.03;;;4.87;;
7213;SDS011;3648;50.614;13.830;2023-03-14T14:42:34;7.87;;;4.90;;
7213;SDS011;3648;50.614;13.830;2023-03-14T14:45:05;5.77;;;3.57;;
7213;SDS011;3648;50.614;13.830;2023-03-14T14:47:47;3.20;;;2.27;;
7213;SDS011;3648;50.614;13.830;2023-03-14T14:50:19;5.47;;;3.10;;
7213;SDS011;3648;50.614;13.830;2023-03-14T14:52:55;6.30;;;4.70;;
7213;SDS011;3648;50.614;13.830;2023-03-14T14:55:28;4.50;;;2.90;;
7213;SDS011;3648;50.614;13.830;2023-03-14T14:58:09;2.97;;;1.70;;
7213;SDS011;3648;50.614;13.830;2023-03-14T15:00:39;3.20;;;1.50;;
7213;SDS011;3648;50.614;13.830;2023-03-14T15:03:10;1.43;;;1.10;;
7213;SDS011;3648;50.614;13.830;2023-03-14T15:05:39;2.97;;;1.30;;
7213;SDS011;3648;50.614;13.830;2023-03-14T15:08:08;1.73;;;1.30;;
7213;SDS011;3648;50.614;13.830;2023-03-14T15:10:35;2.17;;;1.10;;
7213;SDS011;3648;50.614;13.830;2023-03-14T15:13:04;1.67;;;1.50;;
7213;SDS011;3648;50.614;13.830;2023-03-14T15:15:31;2.77;;;2.00;;
7213;SDS011;3648;50.614;13.830;2023-03-14T15:17:59;5.93;;;3.87;;
7213;SDS011;3648;50.614;13.830;2023-03-14T15:20:26;3.73;;;2.50;;